Time;durP1;ratioP1;P1;durP2;ratioP2;P2;SDS_P1;SDS_P2;PMS_P1;PMS_P2;Temp;Humidity;BMP_temperature;BMP_pressure;BME280_temperature;BME280_humidity;BME280_pressure;Samples;Min_cycle;Max_cycle;Signal;HPM_P1;HPM_P2
2021/06/20 00:00:11;;;;;;;7.10;5.97;;;;;;;26.46;44.54;96120.09;4955739;29;20062;-76
2021/06/20 00:02:39;;;;;;;;;;;;;;;26.45;44.83;96110.47;4954815;28;20058;-75
2021/06/20 00:05:09;;;;;;;9.32;6.28;;;;;;;26.40;45.24;96105.22;4955379;29;19929;-79
2021/06/20 00:07:38;;;;;;;6.18;5.65;;;;;;;26.36;45.08;96107.69;4955888;28;20054;-77
2021/06/20 00:10:08;;;;;;;6.68;5.65;;;;;;;26.34;45.33;96101.84;4958324;28;20054;-76
2021/06/20 00:12:36;;;;;;;6.72;5.75;;;;;;;26.33;45.06;96088.75;4954251;28;20051;-75
2021/06/20 00:15:06;;;;;;;6.43;5.82;;;;;;;26.33;44.92;96091.44;4955153;29;20141;-76
2021/06/20 00:17:34;;;;;;;6.38;5.78;;;;;;;26.34;44.93;96080.44;4955128;29;20055;-75
2021/06/20 00:20:01;;;;;;;6.85;6.15;;;;;;;26.31;44.89;96073.81;4956437;29;20047;-78
2021/06/20 00:22:29;;;;;;;8.02;6.18;;;;;;;26.28;44.98;96069.06;4954333;28;20047;-75
2021/06/20 00:24:58;;;;;;;6.97;5.90;;;;;;;26.27;45.12;96080.06;4957498;29;20529;-78
2021/06/20 00:27:25;;;;;;;6.93;5.15;;;;;;;26.27;45.12;96074.72;4957927;29;20059;-78
2021/06/20 00:29:53;;;;;;;8.18;5.90;;;;;;;26.26;45.37;96076.59;4955750;29;20054;-77
2021/06/20 00:32:21;;;;;;;8.65;6.05;;;;;;;26.24;45.07;96081.44;4957349;28;20096;-77
2021/06/20 00:34:48;;;;;;;11.30;5.95;;;;;;;26.23;45.28;96079.84;4955161;28;20051;-76
2021/06/20 00:37:16;;;;;;;9.10;5.80;;;;;;;26.21;45.22;96071.31;4955613;29;20062;-75
2021/06/20 00:39:43;;;;;;;6.90;6.20;;;;;;;26.18;45.15;96061.22;4957234;29;20051;-78
2021/06/20 00:42:12;;;;;;;6.57;5.70;;;;;;;26.17;45.17;96053.50;4957313;28;20453;-77
2021/06/20 00:44:44;;;;;;;6.45;5.85;;;;;;;26.14;45.16;96041.50;4956665;29;20047;-79
2021/06/20 00:47:11;;;;;;;6.78;6.10;;;;;;;26.09;45.26;96045.06;4957733;29;20055;-78
2021/06/20 00:49:40;;;;;;;6.30;5.68;;;;;;;26.09;45.37;96038.94;4955690;29;20099;-78
2021/06/20 00:52:07;;;;;;;8.65;6.60;;;;;;;26.10;45.25;96048.53;4955843;28;20055;-76
2021/06/20 00:54:37;;;;;;;6.47;5.85;;;;;;;26.08;45.16;96037.34;4956092;29;20430;-76
2021/06/20 00:57:05;;;;;;;7.97;6.50;;;;;;;26.07;45.23;96043.78;4954101;29;20514;-76
2021/06/20 00:59:34;;;;;;;6.80;5.82;;;;;;;26.05;45.21;96054.75;4954291;28;20098;-76
2021/06/20 01:02:02;;;;;;;6.40;5.80;;;;;;;26.04;45.83;96055.88;4954670;28;20047;-76
2021/06/20 01:04:30;;;;;;;7.05;5.68;;;;;;;26.04;45.52;96063.88;4956970;29;20051;-77
2021/06/20 01:06:57;;;;;;;10.65;6.53;;;;;;;26.05;45.49;96068.13;4956216;29;20054;-76
2021/06/20 01:09:25;;;;;;;9.55;6.25;;;;;;;26.05;45.58;96068.13;4954269;28;20070;-75
2021/06/20 01:11:52;;;;;;;7.90;6.32;;;;;;;26.07;45.37;96075.88;4953789;28;20052;-76
2021/06/20 01:14:21;;;;;;;10.55;5.90;;;;;;;26.06;45.71;96066.25;4953791;29;20086;-76
2021/06/20 01:16:51;;;;;;;6.40;5.80;;;;;;;26.05;45.17;96067.34;4954737;29;20048;-76
2021/06/20 01:19:19;;;;;;;9.10;6.13;;;;;;;26.03;45.37;96058.81;4955470;28;20473;-78
2021/06/20 01:21:47;;;;;;;6.93;5.28;;;;;;;26.04;45.59;96065.75;4953557;28;20056;-76
2021/06/20 01:24:16;;;;;;;6.63;5.93;;;;;;;26.04;45.58;96073.75;4955722;28;20564;-76
2021/06/20 01:26:44;;;;;;;6.25;5.50;;;;;;;26.06;45.81;96074.25;4955415;28;20449;-78
2021/06/20 01:29:13;;;;;;;7.38;6.30;;;;;;;26.08;45.51;96074.75;4954046;29;20051;-77
2021/06/20 01:31:48;;;;;;;7.18;6.47;;;;;;;26.06;45.27;96061.72;4956980;28;20142;-77
2021/06/20 01:34:16;;;;;;;7.95;6.20;;;;;;;26.06;45.54;96074.25;4957161;29;20048;-78
2021/06/20 01:36:45;;;;;;;6.75;6.05;;;;;;;26.06;45.57;96071.59;4957183;29;20055;-78
2021/06/20 01:39:12;;;;;;;8.63;6.55;;;;;;;26.06;45.44;96077.75;4957038;28;20519;-77
2021/06/20 01:41:42;;;;;;;6.57;5.90;;;;;;;26.06;45.68;96083.09;4956000;28;20094;-75
2021/06/20 01:44:09;;;;;;;5.75;5.25;;;;;;;26.09;45.62;96095.06;4960118;29;20051;-78
2021/06/20 01:46:37;;;;;;;6.63;6.10;;;;;;;26.12;45.86;96099.81;4957061;28;20047;-75
2021/06/20 01:49:05;;;;;;;8.48;6.10;;;;;;;26.14;46.14;96108.34;4959184;28;20051;-78
2021/06/20 01:51:32;;;;;;;6.53;5.70;;;;;;;26.13;45.46;96096.06;4957617;28;20054;-76
2021/06/20 01:54:00;;;;;;;12.68;6.28;;;;;;;26.12;45.64;96099.81;4960314;29;20051;-76
2021/06/20 01:56:27;;;;;;;6.70;6.00;;;;;;;26.09;45.71;96095.84;4960799;28;20062;-77
2021/06/20 01:58:56;;;;;;;6.82;6.22;;;;;;;26.06;45.68;96096.47;4960380;28;20058;-77
2021/06/20 02:01:24;;;;;;;6.72;6.10;;;;;;;26.07;45.87;96102.59;4958930;29;20058;-77
2021/06/20 02:03:51;;;;;;;7.20;6.45;;;;;;;26.06;45.99;96112.50;4958874;29;20082;-77
2021/06/20 02:06:21;;;;;;;6.93;6.25;;;;;;;26.06;46.30;96120.50;4959710;28;20106;-77
2021/06/20 02:08:49;;;;;;;6.60;5.95;;;;;;;26.06;46.39;96138.41;4958597;29;20055;-77
2021/06/20 02:11:16;;;;;;;8.65;6.35;;;;;;;26.06;46.64;96135.72;4960126;29;20055;-77
2021/06/20 02:13:44;;;;;;;6.95;6.25;;;;;;;26.08;47.13;96147.72;4960364;28;20066;-77
2021/06/20 02:16:13;;;;;;;7.43;6.55;;;;;;;26.09;46.78;96161.91;4959437;28;20047;-77
2021/06/20 02:18:41;;;;;;;7.20;6.50;;;;;;;26.10;46.48;96174.16;4959277;29;20055;-77
2021/06/20 02:21:08;;;;;;;7.18;6.57;;;;;;;26.12;46.30;96173.88;4958427;29;20294;-72
2021/06/20 02:23:36;;;;;;;7.35;6.65;;;;;;;26.10;46.47;96166.94;4956128;28;20051;-76
2021/06/20 02:26:03;;;;;;;7.30;6.32;;;;;;;26.08;46.35;96170.97;4956281;29;20078;-76
2021/06/20 02:28:31;;;;;;;7.03;6.43;;;;;;;26.06;46.54;96170.47;4956242;29;20466;-76
2021/06/20 02:30:58;;;;;;;7.93;6.63;;;;;;;26.06;46.76;96170.47;4956336;29;20059;-76
2021/06/20 02:33:27;;;;;;;6.63;6.03;;;;;;;26.06;46.77;96175.81;4951511;28;20157;-73
2021/06/20 02:35:54;;;;;;;7.28;6.20;;;;;;;26.01;46.77;96174.03;4955724;28;20457;-73
2021/06/20 02:38:22;;;;;;;7.55;6.85;;;;;;;25.94;47.47;96176.28;4955958;29;20055;-73
2021/06/20 02:40:49;;;;;;;7.07;6.38;;;;;;;25.88;47.51;96186.25;4955504;29;20050;-73
2021/06/20 02:43:17;;;;;;;7.10;6.40;;;;;;;25.81;47.71;96191.13;4955439;28;20128;-73
2021/06/20 02:45:44;;;;;;;7.10;6.50;;;;;;;25.73;47.88;96196.31;4955476;29;20114;-72
2021/06/20 02:48:11;;;;;;;8.68;6.15;;;;;;;25.64;48.32;96180.16;4955733;29;20054;-73
2021/06/20 02:50:40;;;;;;;7.35;6.60;;;;;;;25.57;48.50;96190.41;4955443;29;20052;-74
2021/06/20 02:53:08;;;;;;;7.43;6.18;;;;;;;25.54;48.75;96207.00;4955351;28;20051;-73
2021/06/20 02:55:36;;;;;;;7.18;6.57;;;;;;;25.53;48.88;96216.88;4954981;28;20078;-73
2021/06/20 02:58:03;;;;;;;6.95;6.30;;;;;;;25.57;48.54;96222.47;4955268;29;20073;-73
2021/06/20 03:00:31;;;;;;;7.50;5.93;;;;;;;25.60;48.64;96237.91;4955365;29;20513;-72
2021/06/20 03:02:58;;;;;;;11.57;7.05;;;;;;;25.64;48.76;96236.25;4956131;28;20047;-77
2021/06/20 03:05:26;;;;;;;17.98;7.55;;;;;;;25.66;48.66;96234.09;4956496;29;20047;-77
2021/06/20 03:07:54;;;;;;;11.32;6.75;;;;;;;25.70;48.03;96237.78;4956225;28;20054;-77
2021/06/20 03:10:22;;;;;;;18.10;6.30;;;;;;;25.73;47.73;96231.84;4957109;29;20054;-77
2021/06/20 03:12:49;;;;;;;21.92;6.68;;;;;;;25.75;47.83;96223.56;4956747;28;20039;-77
2021/06/20 03:15:17;;;;;;;30.45;6.70;;;;;;;25.77;47.86;96222.19;4957157;28;20078;-77
2021/06/20 03:17:45;;;;;;;18.45;5.95;;;;;;;25.80;47.91;96231.47;4957202;29;20055;-77
2021/06/20 03:20:14;;;;;;;25.75;7.00;;;;;;;25.82;48.02;96238.16;4956893;29;20420;-77
2021/06/20 03:22:41;;;;;;;21.45;5.80;;;;;;;25.83;48.08;96231.72;4956826;28;20457;-77
2021/06/20 03:25:11;;;;;;;26.55;6.18;;;;;;;25.85;48.06;96240.25;4956641;28;20047;-77
2021/06/20 03:27:39;;;;;;;18.83;6.55;;;;;;;25.86;47.98;96236.47;4956988;29;20051;-77
2021/06/20 03:30:09;;;;;;;22.88;5.97;;;;;;;25.88;48.18;96239.69;4957114;28;20051;-77
2021/06/20 03:32:36;;;;;;;23.33;6.70;;;;;;;25.90;48.16;96242.06;4956590;28;20055;-77
2021/06/20 03:35:05;;;;;;;22.95;6.47;;;;;;;25.90;48.25;96240.19;4956967;28;20473;-77
2021/06/20 03:37:32;;;;;;;23.92;6.38;;;;;;;25.92;48.62;96255.16;4956957;29;20058;-77
2021/06/20 03:40:00;;;;;;;24.80;6.22;;;;;;;25.94;48.78;96253.00;4956418;29;20528;-77
2021/06/20 03:42:29;;;;;;;22.20;6.78;;;;;;;25.93;48.93;96243.38;4957274;28;20055;-77
2021/06/20 03:44:56;;;;;;;26.85;7.95;;;;;;;25.93;48.97;96246.03;4956290;28;20509;-77
2021/06/20 03:47:24;;;;;;;22.73;6.22;;;;;;;25.94;49.34;96242.28;4956527;29;20055;-77
2021/06/20 03:49:51;;;;;;;25.35;6.30;;;;;;;25.94;49.50;96258.34;4956614;29;20057;-77
2021/06/20 03:52:19;;;;;;;25.65;5.90;;;;;;;25.93;49.55;96256.72;4956452;28;20433;-77
2021/06/20 03:54:50;;;;;;;26.75;6.90;;;;;;;25.93;49.72;96262.06;4956504;28;20058;-77
2021/06/20 03:57:18;;;;;;;23.08;6.63;;;;;;;25.90;49.86;96269.59;4956846;29;20047;-76
2021/06/20 03:59:47;;;;;;;25.60;6.50;;;;;;;25.92;49.88;96265.84;4955985;29;20074;-77
2021/06/20 04:02:15;;;;;;;22.23;6.30;;;;;;;25.92;50.25;96260.50;4955646;28;20055;-77
2021/06/20 04:04:43;;;;;;;26.15;6.47;;;;;;;25.92;50.00;96252.47;4955822;29;20051;-77
2021/06/20 04:07:12;;;;;;;19.58;6.22;;;;;;;25.92;50.23;96252.47;4955192;28;20055;-77
2021/06/20 04:09:40;;;;;;;28.88;6.97;;;;;;;25.91;50.33;96243.69;4955765;29;20055;-77
2021/06/20 04:12:10;;;;;;;26.10;6.03;;;;;;;25.92;50.44;96260.50;4955954;28;20055;-77
2021/06/20 04:14:38;;;;;;;24.08;7.22;;;;;;;25.90;50.57;96261.56;4955706;29;20536;-77
2021/06/20 04:17:08;;;;;;;17.02;5.68;;;;;;;25.92;50.55;96265.84;4956086;29;20564;-77
2021/06/20 04:19:37;;;;;;;22.48;6.40;;;;;;;25.90;50.90;96261.56;4955762;28;20050;-77
2021/06/20 04:22:05;;;;;;;21.58;6.35;;;;;;;25.89;50.68;96262.66;4955933;28;20058;-77
2021/06/20 04:24:33;;;;;;;16.70;5.20;;;;;;;25.87;51.06;96262.13;4956103;29;20043;-78
2021/06/20 04:27:00;;;;;;;20.13;6.22;;;;;;;25.87;51.18;96269.34;4955864;29;20051;-77
2021/06/20 04:29:28;;;;;;;24.02;5.93;;;;;;;25.86;51.22;96279.22;4956485;28;20070;-78
2021/06/20 04:31:55;;;;;;;24.17;6.07;;;;;;;25.86;51.48;96284.56;4955795;28;20050;-77
2021/06/20 04:34:24;;;;;;;25.88;6.57;;;;;;;25.85;51.70;96299.03;4955582;28;20059;-77
2021/06/20 04:36:52;;;;;;;17.45;6.15;;;;;;;25.84;51.59;96307.31;4956217;28;20051;-77
2021/06/20 04:39:19;;;;;;;25.60;7.03;;;;;;;25.85;51.67;96320.41;4955875;28;20114;-77
2021/06/20 04:41:47;;;;;;;26.60;6.10;;;;;;;25.85;51.95;96328.41;4955983;28;20047;-77
2021/06/20 04:47:00;;;;;;;20.17;5.82;;;;;;;25.86;52.15;96310.50;4955693;28;20066;-77
2021/06/20 04:49:29;;;;;;;16.98;6.90;;;;;;;25.83;52.85;96298.50;4955893;28;20072;-77
2021/06/20 04:51:56;;;;;;;26.60;6.30;;;;;;;25.80;53.57;96301.75;4955764;28;20047;-77
2021/06/20 04:54:24;;;;;;;26.00;6.53;;;;;;;25.76;54.80;96284.72;4955007;29;20043;-77
2021/06/20 04:56:51;;;;;;;24.92;6.75;;;;;;;25.70;55.23;96278.63;4955550;28;20449;-77
2021/06/20 04:59:19;;;;;;;25.25;6.30;;;;;;;25.65;56.16;96277.91;4955687;29;20051;-77
2021/06/20 05:01:46;;;;;;;25.65;6.70;;;;;;;25.57;56.45;96282.00;4955669;28;20062;-77
2021/06/20 05:04:14;;;;;;;21.85;6.45;;;;;;;25.49;57.06;96280.78;4955161;29;20081;-77
2021/06/20 05:06:42;;;;;;;24.55;7.22;;;;;;;25.46;57.27;96267.19;4955550;28;20071;-77
2021/06/20 05:09:10;;;;;;;27.73;7.57;;;;;;;25.40;58.09;96277.13;4955181;29;20398;-77
2021/06/20 05:11:37;;;;;;;31.38;7.60;;;;;;;25.31;58.02;96276.16;4954106;28;20403;-76
2021/06/20 05:14:05;;;;;;;18.15;6.97;;;;;;;25.26;59.12;96268.22;4954224;29;20067;-77
2021/06/20 05:16:32;;;;;;;21.48;7.55;;;;;;;25.21;60.31;96254.91;4955015;28;20054;-77
2021/06/20 05:19:00;;;;;;;34.70;8.57;;;;;;;25.18;60.61;96247.44;4958450;29;20063;-77
2021/06/20 05:21:33;;;;;;;26.73;7.97;;;;;;;25.13;61.77;96247.50;4958385;28;20051;-77
2021/06/20 05:24:03;;;;;;;21.10;7.25;;;;;;;25.09;62.46;96245.38;4957955;29;20047;-76
2021/06/20 05:26:30;;;;;;;20.77;7.00;;;;;;;25.08;62.36;96249.16;4958466;29;20507;-77
2021/06/20 05:28:58;;;;;;;19.40;7.30;;;;;;;25.12;62.56;96248.56;4958598;28;20468;-76
2021/06/20 05:31:25;;;;;;;23.65;7.40;;;;;;;25.14;62.74;96247.19;4958451;29;20454;-77
2021/06/20 05:33:53;;;;;;;24.20;7.85;;;;;;;25.14;63.25;96247.19;4958360;29;20075;-77
2021/06/20 05:36:20;;;;;;;25.85;8.55;;;;;;;25.10;63.16;96251.50;4958675;29;20433;-77
2021/06/20 05:38:48;;;;;;;28.35;8.15;;;;;;;25.00;63.25;96260.44;4958167;28;20485;-77
2021/06/20 05:41:17;;;;;;;26.73;8.80;;;;;;;24.89;64.37;96261.63;4958488;29;20530;-77
2021/06/20 05:43:44;;;;;;;23.00;7.63;;;;;;;24.81;64.49;96254.22;4958202;28;20051;-77
2021/06/20 05:46:12;;;;;;;21.15;7.80;;;;;;;24.71;64.30;96254.31;4958499;28;20516;-77
2021/06/20 05:48:39;;;;;;;25.17;7.82;;;;;;;24.60;64.39;96275.75;4958170;28;20059;-77
2021/06/20 05:51:07;;;;;;;25.98;7.65;;;;;;;24.53;65.02;96283.25;4958201;28;20055;-76
2021/06/20 05:53:34;;;;;;;21.55;7.43;;;;;;;24.53;65.70;96291.25;4958255;28;20051;-76
2021/06/20 05:56:03;;;;;;;17.67;6.47;;;;;;;24.57;65.54;96294.16;4958401;28;20055;-76
2021/06/20 05:58:31;;;;;;;19.40;7.22;;;;;;;24.60;65.92;96318.41;4958181;29;20055;-77
2021/06/20 06:00:59;;;;;;;20.90;7.43;;;;;;;24.66;65.36;96327.97;4958409;29;20051;-77
2021/06/20 06:03:27;;;;;;;23.98;7.85;;;;;;;24.67;64.91;96321.56;4958090;28;20043;-78
2021/06/20 06:05:54;;;;;;;31.83;8.30;;;;;;;24.66;65.43;96325.31;4958411;28;20047;-77
2021/06/20 06:08:21;;;;;;;25.70;9.10;;;;;;;24.64;66.07;96319.44;4958578;29;20051;-77
2021/06/20 06:10:49;;;;;;;31.95;8.82;;;;;;;24.59;66.57;96311.47;4958481;28;20062;-77
2021/06/20 06:13:16;;;;;;;23.55;8.52;;;;;;;24.52;66.81;96321.66;4956585;28;20043;-77
2021/06/20 06:15:45;;;;;;;22.70;7.30;;;;;;;24.48;67.06;96349.94;4958128;29;20063;-77
2021/06/20 06:18:13;;;;;;;23.92;7.60;;;;;;;24.46;67.54;96349.41;4958204;28;20047;-77
2021/06/20 06:20:40;;;;;;;23.80;8.57;;;;;;;24.41;66.91;96334.25;4958450;29;20055;-77
2021/06/20 06:23:10;;;;;;;21.35;8.45;;;;;;;24.38;67.05;96332.13;4958042;28;20524;-76
2021/06/20 06:25:37;;;;;;;23.65;8.18;;;;;;;24.30;66.41;96329.25;4958291;28;20051;-78
2021/06/20 06:28:05;;;;;;;19.20;7.50;;;;;;;24.22;66.94;96338.63;4958085;28;20055;-77
2021/06/20 06:30:33;;;;;;;24.70;8.77;;;;;;;24.18;67.18;96358.88;4957244;28;20493;-77
2021/06/20 06:33:04;;;;;;;23.02;7.28;;;;;;;24.18;67.69;96365.03;4957191;28;20062;-77
2021/06/20 06:35:32;;;;;;;21.47;7.77;;;;;;;24.22;67.83;96375.94;4957728;28;20522;-76
2021/06/20 06:38:00;;;;;;;23.60;7.60;;;;;;;24.26;67.51;96377.75;4957952;29;20301;-77
2021/06/20 06:40:28;;;;;;;21.33;7.53;;;;;;;24.34;67.51;96375.63;4957780;28;20055;-77
2021/06/20 06:42:56;;;;;;;17.00;6.97;;;;;;;24.39;67.21;96370.25;4957449;28;20434;-77
2021/06/20 06:45:24;;;;;;;20.88;7.80;;;;;;;24.36;66.76;96368.13;4957862;28;20102;-77
2021/06/20 06:47:51;;;;;;;20.17;7.15;;;;;;;24.39;66.82;96378.25;4957910;29;20058;-77
2021/06/20 06:50:20;;;;;;;20.73;8.38;;;;;;;24.39;67.08;96380.91;4957883;29;20081;-77
2021/06/20 06:52:48;;;;;;;23.70;7.70;;;;;;;24.40;67.15;96385.16;4957385;28;20055;-75
2021/06/20 06:55:16;;;;;;;29.48;8.20;;;;;;;24.43;66.56;96403.28;4957555;28;20044;-77
2021/06/20 06:57:44;;;;;;;20.00;6.47;;;;;;;24.42;65.91;96417.66;4957548;28;20485;-77
2021/06/20 07:00:13;;;;;;;19.30;6.88;;;;;;;24.36;65.26;96424.09;4957137;28;20082;-77
2021/06/20 07:02:41;;;;;;;19.50;6.40;;;;;;;24.31;65.30;96421.47;4957785;28;20047;-77
2021/06/20 07:05:10;;;;;;;23.13;7.05;;;;;;;24.24;65.65;96425.22;4957001;29;20044;-77
2021/06/20 07:07:38;;;;;;;15.93;6.78;;;;;;;24.23;65.48;96431.63;4957198;28;20051;-77
2021/06/20 07:10:07;;;;;;;25.55;7.80;;;;;;;24.21;64.94;96435.66;4957165;29;20059;-77
2021/06/20 07:12:35;;;;;;;18.23;6.18;;;;;;;24.18;64.92;96433.50;4957267;28;20071;-77
2021/06/20 07:15:04;;;;;;;24.48;5.95;;;;;;;24.12;64.65;96435.41;4956842;29;20047;-76
2021/06/20 07:17:32;;;;;;;19.85;6.32;;;;;;;24.08;64.79;96423.69;4957819;29;20048;-77
2021/06/20 07:20:00;;;;;;;22.05;6.10;;;;;;;24.05;64.65;96424.22;4957106;29;20055;-77
2021/06/20 07:22:28;;;;;;;21.15;6.47;;;;;;;23.98;64.65;96405.06;4957312;28;20055;-77
2021/06/20 07:24:57;;;;;;;21.50;5.18;;;;;;;23.93;64.29;96410.44;4957129;28;20390;-77
2021/06/20 07:27:25;;;;;;;23.83;7.43;;;;;;;23.91;64.46;96404.56;4957287;29;20071;-77
2021/06/20 07:29:52;;;;;;;18.77;5.55;;;;;;;23.89;64.44;96394.19;4957409;29;20433;-77
2021/06/20 07:32:20;;;;;;;18.83;6.00;;;;;;;23.93;64.26;96394.44;4956990;28;20437;-77
2021/06/20 07:34:51;;;;;;;18.60;5.93;;;;;;;23.96;64.03;96380.56;4956612;28;20395;-78
2021/06/20 07:37:18;;;;;;;19.05;5.95;;;;;;;23.99;64.04;96383.50;4956475;28;20058;-77
2021/06/20 07:39:46;;;;;;;21.83;6.30;;;;;;;24.04;64.66;96380.00;4957102;28;20066;-77
2021/06/20 07:42:14;;;;;;;20.00;6.25;;;;;;;24.04;64.18;96388.78;4956652;28;20059;-77
2021/06/20 07:44:42;;;;;;;18.13;5.80;;;;;;;24.00;64.34;96385.06;4939706;29;20134;-77
2021/06/20 07:47:10;;;;;;;20.60;6.00;;;;;;;23.99;64.43;96382.72;4956543;29;20240;-78
2021/06/20 07:49:37;;;;;;;15.98;5.80;;;;;;;24.02;64.54;96382.16;4956824;29;20050;-77
2021/06/20 07:52:05;;;;;;;20.02;5.40;;;;;;;24.09;64.80;96376.53;4956414;28;20062;-76
2021/06/20 07:54:32;;;;;;;20.40;5.65;;;;;;;24.12;64.59;96382.13;4955969;28;20109;-77
2021/06/20 07:57:00;;;;;;;18.33;5.50;;;;;;;24.14;64.42;96371.97;4956474;28;20127;-77
2021/06/20 07:59:28;;;;;;;17.58;4.90;;;;;;;24.16;64.08;96367.19;4956625;28;20047;-77
2021/06/20 08:01:56;;;;;;;13.63;5.40;;;;;;;24.20;63.85;96362.88;4955916;28;20055;-77
2021/06/20 08:04:23;;;;;;;19.15;5.50;;;;;;;24.23;63.86;96349.00;4955718;28;20133;-77
2021/06/20 08:06:51;;;;;;;17.50;5.43;;;;;;;24.22;63.97;96344.72;4955966;29;20055;-77
2021/06/20 08:09:18;;;;;;;19.83;5.55;;;;;;;24.20;63.95;96333.56;4956435;28;20055;-77
2021/06/20 08:11:46;;;;;;;16.40;5.22;;;;;;;24.17;63.71;96331.44;4956249;28;20513;-77
2021/06/20 08:14:14;;;;;;;16.70;5.05;;;;;;;24.18;63.94;96324.25;4955650;29;20154;-78
2021/06/20 08:16:43;;;;;;;25.17;6.63;;;;;;;24.23;64.15;96327.69;4954918;28;20065;-76
2021/06/20 08:19:11;;;;;;;18.00;5.93;;;;;;;24.25;63.13;96322.09;4955345;29;20090;-77
2021/06/20 08:21:39;;;;;;;14.65;4.72;;;;;;;24.26;63.42;96313.00;4956054;28;20051;-77
2021/06/20 08:24:08;;;;;;;16.98;4.90;;;;;;;24.27;62.94;96320.75;4955734;29;20071;-78
2021/06/20 08:26:35;;;;;;;17.30;5.10;;;;;;;24.29;62.51;96312.44;4954904;29;20399;-77
2021/06/20 08:29:03;;;;;;;13.02;4.20;;;;;;;24.32;62.77;96308.44;4955323;29;20051;-77
2021/06/20 08:31:31;;;;;;;14.95;5.93;;;;;;;24.32;63.34;96306.56;4954478;28;20062;-77
2021/06/20 08:34:00;;;;;;;20.13;5.88;;;;;;;24.34;63.06;96311.66;4956112;29;20051;-78
2021/06/20 08:36:28;;;;;;;14.07;4.95;;;;;;;24.38;63.31;96299.31;4956374;29;20062;-77
2021/06/20 08:38:56;;;;;;;19.92;5.53;;;;;;;24.40;63.46;96297.19;4955965;29;20051;-77
2021/06/20 08:41:23;;;;;;;18.27;5.68;;;;;;;24.43;63.22;96309.97;4955652;28;20059;-76
2021/06/20 08:43:54;;;;;;;21.50;5.80;;;;;;;24.46;63.53;96306.75;4955614;29;20055;-77
2021/06/20 08:46:24;;;;;;;17.05;5.00;;;;;;;24.46;63.75;96312.06;4955681;28;20051;-77
2021/06/20 08:48:52;;;;;;;20.48;5.90;;;;;;;24.46;64.26;96314.75;4955853;28;20410;-78
2021/06/20 08:51:21;;;;;;;18.92;5.85;;;;;;;24.47;64.51;96317.13;4955731;28;20070;-77
2021/06/20 08:53:50;;;;;;;15.65;5.03;;;;;;;24.51;64.69;96314.75;4955239;28;20102;-77
2021/06/20 08:56:17;;;;;;;14.60;5.57;;;;;;;24.55;64.72;96313.09;4955631;29;20130;-77
2021/06/20 08:58:45;;;;;;;14.45;6.10;;;;;;;24.57;64.85;96313.63;4955600;28;20051;-78
2021/06/20 09:01:13;;;;;;;14.88;5.57;;;;;;;24.62;64.32;96299.44;4955948;29;20051;-77
2021/06/20 09:03:44;;;;;;;19.80;6.00;;;;;;;24.64;64.15;96300.78;4955657;28;20055;-77
2021/06/20 09:06:15;;;;;;;19.02;5.78;;;;;;;24.68;64.66;96299.13;4955593;29;20055;-77
2021/06/20 09:08:49;;;;;;;20.83;5.93;;;;;;;24.75;64.70;96292.69;4955302;29;20432;-77
2021/06/20 09:11:24;;;;;;;13.15;4.70;;;;;;;24.78;63.16;96282.25;4955631;29;20469;-77
2021/06/20 09:13:51;;;;;;;17.33;5.10;;;;;;;24.80;63.23;96284.66;4955173;29;20055;-78
2021/06/20 09:16:21;;;;;;;15.20;4.88;;;;;;;24.83;63.65;96278.75;4955601;29;20047;-77
2021/06/20 09:18:52;;;;;;;11.55;4.78;;;;;;;24.88;63.87;96270.69;4955537;28;20058;-77
2021/06/20 09:21:23;;;;;;;14.18;4.57;;;;;;;24.92;63.25;96266.38;4955381;29;20044;-77
2021/06/20 09:23:52;;;;;;;16.50;5.10;;;;;;;24.96;63.22;96267.41;4955014;28;20505;-77
2021/06/20 09:26:34;;;;;;;17.58;5.80;;;;;;;24.99;62.74;96266.88;4955770;29;20665;-78
2021/06/20 09:29:01;;;;;;;17.60;7.27;;;;;;;25.05;62.88;96265.72;4955319;29;20146;-77
2021/06/20 09:31:47;;;;;;;13.43;5.35;;;;;;;25.17;62.42;96260.00;4955302;28;20293;-77
2021/06/20 09:34:14;;;;;;;17.17;5.75;;;;;;;25.24;61.60;96259.69;4954623;29;20062;-77
2021/06/20 09:36:42;;;;;;;15.93;4.93;;;;;;;25.29;61.16;96263.09;4955159;29;20047;-78
2021/06/20 09:39:22;;;;;;;15.60;4.55;;;;;;;25.36;60.93;96275.31;4955376;28;20059;-78
2021/06/20 09:42:00;;;;;;;21.58;5.03;;;;;;;25.40;61.22;96282.44;4955497;28;20098;-77
2021/06/20 09:44:41;;;;;;;13.68;5.20;;;;;;;25.47;61.46;96290.94;4955064;28;20047;-78
2021/06/20 09:47:12;;;;;;;16.85;5.80;;;;;;;25.52;60.99;96281.25;4955501;29;20502;-77
2021/06/20 09:49:44;;;;;;;17.77;5.43;;;;;;;25.55;61.34;96286.03;4955155;29;20469;-77
2021/06/20 09:52:12;;;;;;;13.88;4.97;;;;;;;25.58;61.55;96277.44;4954676;28;20058;-77
2021/06/20 09:54:47;;;;;;;16.65;4.88;;;;;;;25.59;61.98;96273.72;4954810;29;20051;-77
2021/06/20 09:57:16;;;;;;;15.32;4.82;;;;;;;25.58;60.85;96264.09;4955077;28;20043;-77
2021/06/20 09:59:55;;;;;;;19.95;4.65;;;;;;;25.57;60.88;96283.88;4955713;28;20063;-77
2021/06/20 10:02:25;;;;;;;13.80;4.03;;;;;;;25.58;60.62;96285.47;4955435;28;20054;-77
2021/06/20 10:04:53;;;;;;;18.33;4.63;;;;;;;25.59;60.71;96271.03;4958024;28;20058;-78
2021/06/20 10:07:25;;;;;;;17.80;4.97;;;;;;;25.62;60.67;96273.13;4958360;28;20047;-77
2021/06/20 10:09:54;;;;;;;;;;;;;;;25.66;60.69;96261.59;4959450;28;20055;-76
2021/06/20 10:12:23;;;;;;;21.88;10.27;;;;;;;25.70;60.77;96265.28;4958231;28;20448;-77
2021/06/20 10:14:52;;;;;;;20.38;5.93;;;;;;;25.75;60.89;96266.28;4958421;28;20083;-77
2021/06/20 10:17:27;;;;;;;16.73;4.72;;;;;;;25.78;60.85;96271.06;4957836;29;20052;-76
2021/06/20 10:19:58;;;;;;;14.45;5.22;;;;;;;25.82;61.03;96272.88;4958516;28;20051;-77
2021/06/20 10:22:35;;;;;;;10.48;4.47;;;;;;;25.88;61.28;96261.06;4958986;28;20063;-78
2021/06/20 10:25:06;;;;;;;11.38;4.28;;;;;;;25.95;61.45;96267.91;4958293;29;20051;-77
2021/06/20 10:27:37;;;;;;;15.70;5.07;;;;;;;25.96;61.10;96262.31;4958241;28;20059;-75
2021/06/20 10:30:07;;;;;;;17.13;4.63;;;;;;;25.96;60.91;96274.88;4958056;29;20521;-77
2021/06/20 10:32:37;;;;;;;14.85;5.53;;;;;;;25.96;61.37;96266.84;4958117;28;20814;-77
2021/06/20 10:35:09;;;;;;;13.10;4.80;;;;;;;25.96;61.54;96273.00;4958515;29;20465;-77
2021/06/20 10:37:38;;;;;;;18.70;4.75;;;;;;;25.95;61.38;96265.25;4958275;29;20055;-77
2021/06/20 10:40:20;;;;;;;24.23;6.20;;;;;;;25.93;61.42;96264.75;4958233;29;20055;-77
2021/06/20 10:42:48;;;;;;;17.38;5.53;;;;;;;25.88;61.81;96261.06;4958243;28;20469;-78
2021/06/20 10:45:28;;;;;;;21.05;6.15;;;;;;;25.88;61.74;96260.25;4958259;29;20059;-77
2021/06/20 10:47:57;;;;;;;14.50;5.53;;;;;;;25.88;61.29;96271.75;4958193;28;20055;-77
2021/06/20 10:50:36;;;;;;;11.90;5.03;;;;;;;25.92;61.11;96282.66;4958186;29;20421;-77
2021/06/20 10:53:04;;;;;;;20.52;5.38;;;;;;;25.90;61.03;96268.78;4957582;28;20062;-78
2021/06/20 10:55:45;;;;;;;15.50;5.30;;;;;;;25.89;60.94;96259.19;4958051;29;20058;-78
2021/06/20 10:58:18;;;;;;;10.57;4.28;;;;;;;25.88;60.99;96255.72;4957669;29;20577;-78
2021/06/20 11:00:46;;;;;;;15.88;5.13;;;;;;;25.87;61.12;96258.66;4957737;29;20057;-77
2021/06/20 11:03:21;;;;;;;17.02;7.82;;;;;;;25.87;59.91;96256.78;4957430;28;20548;-77
2021/06/20 11:05:51;;;;;;;14.15;4.88;;;;;;;25.87;60.64;96254.09;4957521;28;20070;-77
2021/06/20 11:08:27;;;;;;;14.00;4.60;;;;;;;25.88;60.42;96254.91;4957601;29;20051;-76
2021/06/20 11:11:06;;;;;;;16.05;5.38;;;;;;;25.90;61.21;96253.53;4957164;28;20051;-77
2021/06/20 11:13:34;;;;;;;12.98;5.10;;;;;;;25.95;61.17;96244.66;4957086;28;20055;-77
2021/06/20 11:16:05;;;;;;;13.98;5.53;;;;;;;25.99;60.92;96248.34;4956264;28;20175;-77
2021/06/20 11:18:33;;;;;;;18.88;5.72;;;;;;;26.02;60.81;96244.28;4957281;28;20481;-78
2021/06/20 11:21:01;;;;;;;17.63;6.90;;;;;;;26.02;60.51;96231.75;4957553;29;20051;-77
2021/06/20 11:23:30;;;;;;;21.63;6.13;;;;;;;26.02;60.30;96231.75;4956889;28;20058;-77
2021/06/20 11:25:59;;;;;;;13.98;6.15;;;;;;;26.02;60.10;96230.94;4957515;29;20059;-77
2021/06/20 11:28:29;;;;;;;16.83;5.38;;;;;;;26.02;60.20;96230.94;4957234;29;20080;-77
2021/06/20 11:31:04;;;;;;;14.13;5.38;;;;;;;26.07;60.11;96222.88;4956828;28;20051;-77
2021/06/20 11:33:32;;;;;;;17.63;6.40;;;;;;;26.10;59.86;96224.94;4956943;28;20047;-77
2021/06/20 11:36:00;;;;;;;17.77;6.78;;;;;;;26.06;59.69;96231.94;4957117;29;20078;-77